sensor_id;sensor_type;location;lat;lon;timestamp;P1;durP1;ratioP1;P2;durP2;ratioP2
19525;SDS011;9907;42.676;26.348;2024-03-29T00:01:20;32.40;;;10.07;;
19525;SDS011;9907;42.676;26.348;2024-03-29T00:03:46;39.17;;;10.20;;
19525;SDS011;9907;42.676;26.348;2024-03-29T00:06:11;32.60;;;9.50;;
19525;SDS011;9907;42.676;26.348;2024-03-29T00:08:37;34.93;;;9.43;;
19525;SDS011;9907;42.676;26.348;2024-03-29T00:11:02;37.40;;;8.80;;
19525;SDS011;9907;42.676;26.348;2024-03-29T00:13:28;34.60;;;8.77;;
19525;SDS011;9907;42.676;26.348;2024-03-29T00:15:54;39.57;;;9.93;;
19525;SDS011;9907;42.676;26.348;2024-03-29T00:18:19;33.03;;;9.47;;
19525;SDS011;9907;42.676;26.348;2024-03-29T00:20:45;29.93;;;9.03;;
19525;SDS011;9907;42.676;26.348;2024-03-29T00:23:10;31.07;;;9.57;;
19525;SDS011;9907;42.676;26.348;2024-03-29T00:25:35;37.67;;;8.77;;
19525;SDS011;9907;42.676;26.348;2024-03-29T00:28:01;32.07;;;9.20;;
19525;SDS011;9907;42.676;26.348;2024-03-29T00:30:27;38.70;;;9.57;;
19525;SDS011;9907;42.676;26.348;2024-03-29T00:32:52;35.73;;;9.70;;
19525;SDS011;9907;42.676;26.348;2024-03-29T00:35:17;33.00;;;9.07;;
19525;SDS011;9907;42.676;26.348;2024-03-29T00:37:44;32.77;;;9.73;;
19525;SDS011;9907;42.676;26.348;2024-03-29T00:40:10;30.80;;;9.33;;
19525;SDS011;9907;42.676;26.348;2024-03-29T00:42:36;32.90;;;8.83;;
19525;SDS011;9907;42.676;26.348;2024-03-29T00:45:01;31.97;;;8.63;;
19525;SDS011;9907;42.676;26.348;2024-03-29T00:47:26;30.93;;;8.47;;
19525;SDS011;9907;42.676;26.348;2024-03-29T00:49:52;33.60;;;8.47;;
19525;SDS011;9907;42.676;26.348;2024-03-29T00:52:17;34.13;;;8.73;;
19525;SDS011;9907;42.676;26.348;2024-03-29T00:54:43;37.10;;;9.53;;
19525;SDS011;9907;42.676;26.348;2024-03-29T00:57:08;38.27;;;9.30;;
19525;SDS011;9907;42.676;26.348;2024-03-29T00:59:38;29.83;;;8.47;;
19525;SDS011;9907;42.676;26.348;2024-03-29T01:02:03;30.90;;;8.10;;
19525;SDS011;9907;42.676;26.348;2024-03-29T01:04:29;29.37;;;8.13;;
19525;SDS011;9907;42.676;26.348;2024-03-29T01:06:54;35.67;;;8.80;;
19525;SDS011;9907;42.676;26.348;2024-03-29T01:09:21;34.03;;;8.33;;
19525;SDS011;9907;42.676;26.348;2024-03-29T01:11:47;31.57;;;8.20;;
19525;SDS011;9907;42.676;26.348;2024-03-29T01:14:12;36.60;;;8.30;;
19525;SDS011;9907;42.676;26.348;2024-03-29T01:16:37;38.83;;;8.90;;
19525;SDS011;9907;42.676;26.348;2024-03-29T01:19:03;31.77;;;8.20;;
19525;SDS011;9907;42.676;26.348;2024-03-29T01:21:30;32.60;;;8.87;;
19525;SDS011;9907;42.676;26.348;2024-03-29T01:23:55;37.97;;;8.13;;
19525;SDS011;9907;42.676;26.348;2024-03-29T01:26:20;26.97;;;8.30;;
19525;SDS011;9907;42.676;26.348;2024-03-29T01:28:46;37.67;;;9.07;;
19525;SDS011;9907;42.676;26.348;2024-03-29T01:31:11;31.90;;;8.07;;
19525;SDS011;9907;42.676;26.348;2024-03-29T01:33:37;30.63;;;8.80;;
19525;SDS011;9907;42.676;26.348;2024-03-29T01:36:04;33.13;;;8.80;;
19525;SDS011;9907;42.676;26.348;2024-03-29T01:38:30;35.23;;;8.83;;
19525;SDS011;9907;42.676;26.348;2024-03-29T01:40:55;38.40;;;8.93;;
19525;SDS011;9907;42.676;26.348;2024-03-29T01:43:21;31.33;;;8.90;;
19525;SDS011;9907;42.676;26.348;2024-03-29T01:45:47;33.23;;;9.10;;
19525;SDS011;9907;42.676;26.348;2024-03-29T01:48:16;34.37;;;9.70;;
19525;SDS011;9907;42.676;26.348;2024-03-29T01:50:42;36.53;;;9.00;;
19525;SDS011;9907;42.676;26.348;2024-03-29T01:53:08;40.70;;;9.10;;
19525;SDS011;9907;42.676;26.348;2024-03-29T01:55:34;32.60;;;7.87;;
19525;SDS011;9907;42.676;26.348;2024-03-29T01:58:01;36.13;;;8.77;;
19525;SDS011;9907;42.676;26.348;2024-03-29T02:00:30;34.40;;;8.23;;
19525;SDS011;9907;42.676;26.348;2024-03-29T02:02:57;38.23;;;8.70;;
19525;SDS011;9907;42.676;26.348;2024-03-29T02:05:24;28.20;;;8.40;;
19525;SDS011;9907;42.676;26.348;2024-03-29T02:07:51;33.07;;;8.10;;
19525;SDS011;9907;42.676;26.348;2024-03-29T02:10:17;29.73;;;8.60;;
19525;SDS011;9907;42.676;26.348;2024-03-29T02:12:43;35.87;;;8.67;;
19525;SDS011;9907;42.676;26.348;2024-03-29T02:15:13;30.97;;;8.33;;
19525;SDS011;9907;42.676;26.348;2024-03-29T02:17:41;39.67;;;8.80;;
19525;SDS011;9907;42.676;26.348;2024-03-29T02:20:06;65.40;;;13.53;;
19525;SDS011;9907;42.676;26.348;2024-03-29T02:22:32;36.70;;;9.37;;
19525;SDS011;9907;42.676;26.348;2024-03-29T02:25:09;30.57;;;9.03;;
19525;SDS011;9907;42.676;26.348;2024-03-29T02:27:37;33.13;;;8.70;;
19525;SDS011;9907;42.676;26.348;2024-03-29T02:30:03;29.77;;;9.53;;
19525;SDS011;9907;42.676;26.348;2024-03-29T02:32:29;33.50;;;8.73;;
19525;SDS011;9907;42.676;26.348;2024-03-29T02:34:54;30.27;;;8.60;;
19525;SDS011;9907;42.676;26.348;2024-03-29T02:37:20;37.97;;;8.37;;
19525;SDS011;9907;42.676;26.348;2024-03-29T02:39:45;27.53;;;8.10;;
19525;SDS011;9907;42.676;26.348;2024-03-29T02:42:10;33.60;;;8.83;;
19525;SDS011;9907;42.676;26.348;2024-03-29T02:44:36;27.10;;;8.77;;
19525;SDS011;9907;42.676;26.348;2024-03-29T02:47:01;34.63;;;8.20;;
19525;SDS011;9907;42.676;26.348;2024-03-29T02:49:27;35.77;;;8.37;;
19525;SDS011;9907;42.676;26.348;2024-03-29T02:51:53;27.00;;;8.50;;
19525;SDS011;9907;42.676;26.348;2024-03-29T02:54:19;27.87;;;8.53;;
19525;SDS011;9907;42.676;26.348;2024-03-29T02:56:45;31.13;;;8.93;;
19525;SDS011;9907;42.676;26.348;2024-03-29T02:59:10;30.50;;;7.90;;
19525;SDS011;9907;42.676;26.348;2024-03-29T03:01:36;32.47;;;8.27;;
19525;SDS011;9907;42.676;26.348;2024-03-29T03:04:02;32.87;;;8.57;;
19525;SDS011;9907;42.676;26.348;2024-03-29T03:06:28;33.77;;;8.60;;
19525;SDS011;9907;42.676;26.348;2024-03-29T03:08:53;32.33;;;8.10;;
19525;SDS011;9907;42.676;26.348;2024-03-29T03:11:37;37.20;;;8.93;;
19525;SDS011;9907;42.676;26.348;2024-03-29T03:14:03;35.43;;;8.23;;
19525;SDS011;9907;42.676;26.348;2024-03-29T03:16:28;40.67;;;9.37;;
19525;SDS011;9907;42.676;26.348;2024-03-29T03:18:53;36.83;;;9.53;;
19525;SDS011;9907;42.676;26.348;2024-03-29T03:21:19;41.80;;;8.47;;
19525;SDS011;9907;42.676;26.348;2024-03-29T03:23:44;32.33;;;8.50;;
19525;SDS011;9907;42.676;26.348;2024-03-29T03:26:10;33.50;;;8.27;;
19525;SDS011;9907;42.676;26.348;2024-03-29T03:28:35;39.97;;;8.80;;
19525;SDS011;9907;42.676;26.348;2024-03-29T03:31:02;29.20;;;8.23;;
19525;SDS011;9907;42.676;26.348;2024-03-29T03:33:27;31.27;;;8.23;;
19525;SDS011;9907;42.676;26.348;2024-03-29T03:35:53;32.03;;;7.77;;
19525;SDS011;9907;42.676;26.348;2024-03-29T03:38:18;28.83;;;7.93;;
19525;SDS011;9907;42.676;26.348;2024-03-29T03:40:43;56.07;;;18.23;;
19525;SDS011;9907;42.676;26.348;2024-03-29T03:43:09;36.53;;;13.47;;
19525;SDS011;9907;42.676;26.348;2024-03-29T03:45:35;31.67;;;9.30;;
19525;SDS011;9907;42.676;26.348;2024-03-29T03:48:05;27.47;;;8.23;;
19525;SDS011;9907;42.676;26.348;2024-03-29T03:50:32;29.07;;;8.60;;
19525;SDS011;9907;42.676;26.348;2024-03-29T03:52:58;31.80;;;8.27;;
19525;SDS011;9907;42.676;26.348;2024-03-29T03:55:24;35.90;;;8.87;;
19525;SDS011;9907;42.676;26.348;2024-03-29T03:57:49;29.23;;;8.07;;
19525;SDS011;9907;42.676;26.348;2024-03-29T04:00:15;27.10;;;7.07;;
19525;SDS011;9907;42.676;26.348;2024-03-29T04:02:41;28.93;;;7.93;;
19525;SDS011;9907;42.676;26.348;2024-03-29T04:05:06;30.63;;;9.30;;
19525;SDS011;9907;42.676;26.348;2024-03-29T04:07:32;32.37;;;7.53;;
19525;SDS011;9907;42.676;26.348;2024-03-29T04:09:58;50.93;;;10.83;;
19525;SDS011;9907;42.676;26.348;2024-03-29T04:12:23;28.50;;;7.77;;
19525;SDS011;9907;42.676;26.348;2024-03-29T04:14:49;23.07;;;6.93;;
19525;SDS011;9907;42.676;26.348;2024-03-29T04:17:14;30.10;;;7.97;;
19525;SDS011;9907;42.676;26.348;2024-03-29T04:19:40;26.67;;;7.77;;
19525;SDS011;9907;42.676;26.348;2024-03-29T04:22:05;32.23;;;8.30;;
19525;SDS011;9907;42.676;26.348;2024-03-29T04:24:31;22.87;;;7.70;;
19525;SDS011;9907;42.676;26.348;2024-03-29T04:26:57;29.53;;;7.87;;
19525;SDS011;9907;42.676;26.348;2024-03-29T04:29:23;32.53;;;7.57;;
19525;SDS011;9907;42.676;26.348;2024-03-29T04:31:48;29.93;;;8.57;;
19525;SDS011;9907;42.676;26.348;2024-03-29T04:34:14;23.97;;;7.47;;
19525;SDS011;9907;42.676;26.348;2024-03-29T04:36:39;26.33;;;8.13;;
19525;SDS011;9907;42.676;26.348;2024-03-29T04:39:05;24.13;;;8.30;;
19525;SDS011;9907;42.676;26.348;2024-03-29T04:41:30;32.97;;;9.00;;
19525;SDS011;9907;42.676;26.348;2024-03-29T04:44:02;26.57;;;8.53;;
19525;SDS011;9907;42.676;26.348;2024-03-29T04:46:29;33.60;;;9.63;;
19525;SDS011;9907;42.676;26.348;2024-03-29T04:48:55;29.17;;;9.17;;
19525;SDS011;9907;42.676;26.348;2024-03-29T04:51:21;32.33;;;9.10;;
19525;SDS011;9907;42.676;26.348;2024-03-29T04:53:46;32.93;;;9.10;;
19525;SDS011;9907;42.676;26.348;2024-03-29T04:56:12;31.87;;;8.83;;
19525;SDS011;9907;42.676;26.348;2024-03-29T04:58:37;36.93;;;7.73;;
19525;SDS011;9907;42.676;26.348;2024-03-29T05:01:03;37.03;;;8.60;;
19525;SDS011;9907;42.676;26.348;2024-03-29T05:03:28;27.73;;;7.97;;
19525;SDS011;9907;42.676;26.348;2024-03-29T05:05:54;27.13;;;7.60;;
19525;SDS011;9907;42.676;26.348;2024-03-29T05:08:19;28.83;;;8.17;;
19525;SDS011;9907;42.676;26.348;2024-03-29T05:10:47;27.80;;;7.33;;
19525;SDS011;9907;42.676;26.348;2024-03-29T05:13:16;32.10;;;7.13;;
19525;SDS011;9907;42.676;26.348;2024-03-29T05:15:43;27.20;;;8.07;;
19525;SDS011;9907;42.676;26.348;2024-03-29T05:18:09;22.97;;;7.37;;
19525;SDS011;9907;42.676;26.348;2024-03-29T05:20:34;26.30;;;8.10;;
19525;SDS011;9907;42.676;26.348;2024-03-29T05:23:00;27.97;;;8.40;;
19525;SDS011;9907;42.676;26.348;2024-03-29T05:25:26;27.47;;;8.33;;
19525;SDS011;9907;42.676;26.348;2024-03-29T05:27:51;29.60;;;8.17;;
19525;SDS011;9907;42.676;26.348;2024-03-29T05:30:17;33.97;;;7.83;;
19525;SDS011;9907;42.676;26.348;2024-03-29T05:32:43;31.40;;;7.70;;
19525;SDS011;9907;42.676;26.348;2024-03-29T05:35:11;30.83;;;7.57;;
19525;SDS011;9907;42.676;26.348;2024-03-29T05:37:38;31.87;;;8.47;;
19525;SDS011;9907;42.676;26.348;2024-03-29T05:40:04;27.47;;;8.23;;
19525;SDS011;9907;42.676;26.348;2024-03-29T05:42:32;28.97;;;8.17;;
19525;SDS011;9907;42.676;26.348;2024-03-29T05:44:58;30.47;;;8.27;;
19525;SDS011;9907;42.676;26.348;2024-03-29T05:47:24;28.10;;;8.47;;
19525;SDS011;9907;42.676;26.348;2024-03-29T05:49:49;30.77;;;8.20;;
19525;SDS011;9907;42.676;26.348;2024-03-29T05:52:16;37.77;;;8.57;;
19525;SDS011;9907;42.676;26.348;2024-03-29T05:54:43;25.57;;;7.33;;
19525;SDS011;9907;42.676;26.348;2024-03-29T05:57:09;33.63;;;8.07;;
19525;SDS011;9907;42.676;26.348;2024-03-29T05:59:35;31.47;;;7.70;;
19525;SDS011;9907;42.676;26.348;2024-03-29T06:02:01;30.47;;;7.93;;
19525;SDS011;9907;42.676;26.348;2024-03-29T06:04:26;27.77;;;7.13;;
19525;SDS011;9907;42.676;26.348;2024-03-29T06:07:02;33.90;;;8.00;;
19525;SDS011;9907;42.676;26.348;2024-03-29T06:09:28;26.73;;;7.10;;
19525;SDS011;9907;42.676;26.348;2024-03-29T06:11:55;28.33;;;7.83;;
19525;SDS011;9907;42.676;26.348;2024-03-29T06:14:22;31.97;;;7.90;;
19525;SDS011;9907;42.676;26.348;2024-03-29T06:17:06;25.57;;;7.37;;
19525;SDS011;9907;42.676;26.348;2024-03-29T06:19:50;30.20;;;7.93;;
19525;SDS011;9907;42.676;26.348;2024-03-29T06:22:19;28.60;;;8.17;;
19525;SDS011;9907;42.676;26.348;2024-03-29T06:24:44;26.20;;;7.27;;
19525;SDS011;9907;42.676;26.348;2024-03-29T06:27:10;37.13;;;7.90;;
19525;SDS011;9907;42.676;26.348;2024-03-29T06:29:38;27.00;;;8.33;;
19525;SDS011;9907;42.676;26.348;2024-03-29T06:32:03;30.50;;;9.40;;
19525;SDS011;9907;42.676;26.348;2024-03-29T06:34:32;34.20;;;9.93;;
19525;SDS011;9907;42.676;26.348;2024-03-29T06:36:57;34.83;;;9.03;;
19525;SDS011;9907;42.676;26.348;2024-03-29T06:39:23;27.97;;;8.27;;
19525;SDS011;9907;42.676;26.348;2024-03-29T06:41:50;36.27;;;9.17;;
19525;SDS011;9907;42.676;26.348;2024-03-29T06:44:16;44.87;;;10.17;;
19525;SDS011;9907;42.676;26.348;2024-03-29T06:46:42;35.57;;;8.57;;
19525;SDS011;9907;42.676;26.348;2024-03-29T06:49:07;26.70;;;7.50;;
19525;SDS011;9907;42.676;26.348;2024-03-29T06:51:32;31.23;;;7.80;;
19525;SDS011;9907;42.676;26.348;2024-03-29T06:53:58;29.47;;;7.83;;
19525;SDS011;9907;42.676;26.348;2024-03-29T06:56:23;28.03;;;7.07;;
19525;SDS011;9907;42.676;26.348;2024-03-29T06:58:49;31.33;;;7.53;;
19525;SDS011;9907;42.676;26.348;2024-03-29T07:01:14;32.63;;;8.53;;
19525;SDS011;9907;42.676;26.348;2024-03-29T07:03:40;25.83;;;8.63;;
19525;SDS011;9907;42.676;26.348;2024-03-29T07:06:06;32.90;;;9.27;;
19525;SDS011;9907;42.676;26.348;2024-03-29T07:08:31;34.87;;;8.37;;
19525;SDS011;9907;42.676;26.348;2024-03-29T07:10:58;33.07;;;9.00;;
19525;SDS011;9907;42.676;26.348;2024-03-29T07:13:24;31.33;;;8.67;;
19525;SDS011;9907;42.676;26.348;2024-03-29T07:15:52;28.43;;;9.13;;
19525;SDS011;9907;42.676;26.348;2024-03-29T07:18:18;30.07;;;7.77;;
19525;SDS011;9907;42.676;26.348;2024-03-29T07:20:43;33.17;;;8.83;;
19525;SDS011;9907;42.676;26.348;2024-03-29T07:23:09;30.53;;;8.53;;
19525;SDS011;9907;42.676;26.348;2024-03-29T07:25:36;36.63;;;8.87;;
19525;SDS011;9907;42.676;26.348;2024-03-29T07:28:02;37.97;;;8.20;;
19525;SDS011;9907;42.676;26.348;2024-03-29T07:30:28;34.60;;;10.07;;
19525;SDS011;9907;42.676;26.348;2024-03-29T07:32:54;35.27;;;9.43;;
19525;SDS011;9907;42.676;26.348;2024-03-29T07:35:19;36.33;;;8.47;;
19525;SDS011;9907;42.676;26.348;2024-03-29T07:37:45;31.70;;;10.27;;
19525;SDS011;9907;42.676;26.348;2024-03-29T07:40:14;27.10;;;8.83;;
19525;SDS011;9907;42.676;26.348;2024-03-29T07:42:40;41.20;;;9.40;;
19525;SDS011;9907;42.676;26.348;2024-03-29T07:45:06;32.90;;;8.60;;
19525;SDS011;9907;42.676;26.348;2024-03-29T07:47:32;32.33;;;9.33;;
19525;SDS011;9907;42.676;26.348;2024-03-29T07:49:57;29.73;;;8.87;;
19525;SDS011;9907;42.676;26.348;2024-03-29T07:52:23;39.23;;;10.23;;
19525;SDS011;9907;42.676;26.348;2024-03-29T07:54:49;35.00;;;10.97;;
19525;SDS011;9907;42.676;26.348;2024-03-29T07:57:14;40.00;;;9.50;;
19525;SDS011;9907;42.676;26.348;2024-03-29T07:59:41;35.73;;;9.70;;
19525;SDS011;9907;42.676;26.348;2024-03-29T08:02:07;38.73;;;9.20;;
19525;SDS011;9907;42.676;26.348;2024-03-29T08:04:32;27.53;;;9.30;;
19525;SDS011;9907;42.676;26.348;2024-03-29T08:06:57;31.77;;;8.83;;
19525;SDS011;9907;42.676;26.348;2024-03-29T08:09:23;30.33;;;9.30;;
19525;SDS011;9907;42.676;26.348;2024-03-29T08:11:48;34.47;;;9.83;;
19525;SDS011;9907;42.676;26.348;2024-03-29T08:14:14;29.50;;;8.83;;
19525;SDS011;9907;42.676;26.348;2024-03-29T08:16:40;28.67;;;8.50;;
19525;SDS011;9907;42.676;26.348;2024-03-29T08:19:05;28.20;;;8.63;;
19525;SDS011;9907;42.676;26.348;2024-03-29T08:21:31;29.73;;;8.53;;
19525;SDS011;9907;42.676;26.348;2024-03-29T08:23:56;25.17;;;8.50;;
19525;SDS011;9907;42.676;26.348;2024-03-29T08:26:22;43.40;;;9.07;;
19525;SDS011;9907;42.676;26.348;2024-03-29T08:28:48;30.47;;;8.63;;
19525;SDS011;9907;42.676;26.348;2024-03-29T08:31:13;28.07;;;7.83;;
19525;SDS011;9907;42.676;26.348;2024-03-29T08:33:39;29.97;;;8.63;;
19525;SDS011;9907;42.676;26.348;2024-03-29T08:36:08;33.13;;;7.73;;
19525;SDS011;9907;42.676;26.348;2024-03-29T08:38:36;24.90;;;7.47;;
19525;SDS011;9907;42.676;26.348;2024-03-29T08:41:02;26.30;;;8.63;;
19525;SDS011;9907;42.676;26.348;2024-03-29T08:43:27;48.97;;;20.57;;
19525;SDS011;9907;42.676;26.348;2024-03-29T08:45:53;32.00;;;9.47;;
19525;SDS011;9907;42.676;26.348;2024-03-29T08:48:18;28.90;;;9.10;;
19525;SDS011;9907;42.676;26.348;2024-03-29T08:50:44;31.90;;;8.17;;
19525;SDS011;9907;42.676;26.348;2024-03-29T08:53:09;24.67;;;7.70;;
19525;SDS011;9907;42.676;26.348;2024-03-29T08:55:35;31.67;;;8.07;;
19525;SDS011;9907;42.676;26.348;2024-03-29T08:58:02;27.83;;;6.83;;
19525;SDS011;9907;42.676;26.348;2024-03-29T09:00:29;24.37;;;6.97;;
19525;SDS011;9907;42.676;26.348;2024-03-29T09:02:55;26.93;;;6.93;;
19525;SDS011;9907;42.676;26.348;2024-03-29T09:05:21;24.03;;;7.30;;
19525;SDS011;9907;42.676;26.348;2024-03-29T09:07:48;28.30;;;7.40;;
19525;SDS011;9907;42.676;26.348;2024-03-29T09:10:14;35.73;;;10.53;;
19525;SDS011;9907;42.676;26.348;2024-03-29T09:12:40;22.00;;;6.40;;
19525;SDS011;9907;42.676;26.348;2024-03-29T09:15:06;23.80;;;6.13;;
19525;SDS011;9907;42.676;26.348;2024-03-29T09:17:41;27.07;;;6.60;;
19525;SDS011;9907;42.676;26.348;2024-03-29T09:20:10;28.83;;;7.13;;
19525;SDS011;9907;42.676;26.348;2024-03-29T09:22:35;20.77;;;5.97;;
19525;SDS011;9907;42.676;26.348;2024-03-29T09:25:01;22.77;;;8.37;;
19525;SDS011;9907;42.676;26.348;2024-03-29T09:27:28;22.50;;;6.20;;
19525;SDS011;9907;42.676;26.348;2024-03-29T09:29:54;24.63;;;5.90;;
19525;SDS011;9907;42.676;26.348;2024-03-29T09:32:21;23.13;;;6.10;;
19525;SDS011;9907;42.676;26.348;2024-03-29T09:34:47;25.13;;;6.50;;
19525;SDS011;9907;42.676;26.348;2024-03-29T09:37:13;21.07;;;6.00;;
19525;SDS011;9907;42.676;26.348;2024-03-29T09:39:38;19.87;;;5.80;;
19525;SDS011;9907;42.676;26.348;2024-03-29T09:42:04;22.17;;;5.43;;
19525;SDS011;9907;42.676;26.348;2024-03-29T09:44:32;17.93;;;5.40;;
19525;SDS011;9907;42.676;26.348;2024-03-29T09:47:02;20.57;;;5.20;;
19525;SDS011;9907;42.676;26.348;2024-03-29T09:49:29;16.30;;;4.47;;
19525;SDS011;9907;42.676;26.348;2024-03-29T09:51:56;17.77;;;4.57;;
19525;SDS011;9907;42.676;26.348;2024-03-29T09:54:22;16.53;;;5.80;;
19525;SDS011;9907;42.676;26.348;2024-03-29T09:56:49;20.53;;;5.67;;
19525;SDS011;9907;42.676;26.348;2024-03-29T09:59:15;17.93;;;5.27;;
19525;SDS011;9907;42.676;26.348;2024-03-29T10:01:40;14.73;;;5.07;;
19525;SDS011;9907;42.676;26.348;2024-03-29T10:04:06;14.43;;;4.33;;
19525;SDS011;9907;42.676;26.348;2024-03-29T10:06:33;18.00;;;4.97;;
19525;SDS011;9907;42.676;26.348;2024-03-29T10:09:00;10.83;;;4.00;;
19525;SDS011;9907;42.676;26.348;2024-03-29T10:11:26;15.33;;;4.70;;
19525;SDS011;9907;42.676;26.348;2024-03-29T10:13:51;14.47;;;4.20;;
19525;SDS011;9907;42.676;26.348;2024-03-29T10:16:20;13.00;;;4.50;;
19525;SDS011;9907;42.676;26.348;2024-03-29T10:18:47;9.33;;;3.53;;
19525;SDS011;9907;42.676;26.348;2024-03-29T10:21:13;13.07;;;4.23;;
19525;SDS011;9907;42.676;26.348;2024-03-29T10:23:40;9.80;;;4.03;;
19525;SDS011;9907;42.676;26.348;2024-03-29T10:26:06;14.33;;;3.87;;
19525;SDS011;9907;42.676;26.348;2024-03-29T10:28:32;14.13;;;3.50;;
19525;SDS011;9907;42.676;26.348;2024-03-29T10:31:03;11.10;;;3.30;;
19525;SDS011;9907;42.676;26.348;2024-03-29T10:33:30;11.53;;;3.70;;
19525;SDS011;9907;42.676;26.348;2024-03-29T10:35:56;8.27;;;2.90;;
19525;SDS011;9907;42.676;26.348;2024-03-29T10:38:26;6.13;;;3.03;;
19525;SDS011;9907;42.676;26.348;2024-03-29T10:40:52;15.23;;;4.30;;
19525;SDS011;9907;42.676;26.348;2024-03-29T10:43:18;11.77;;;4.23;;
19525;SDS011;9907;42.676;26.348;2024-03-29T10:45:48;13.07;;;4.20;;
19525;SDS011;9907;42.676;26.348;2024-03-29T10:48:15;11.57;;;2.60;;
19525;SDS011;9907;42.676;26.348;2024-03-29T10:50:42;9.40;;;4.20;;
19525;SDS011;9907;42.676;26.348;2024-03-29T10:53:09;11.63;;;4.00;;
19525;SDS011;9907;42.676;26.348;2024-03-29T10:55:36;8.83;;;2.93;;
19525;SDS011;9907;42.676;26.348;2024-03-29T10:58:03;12.40;;;3.60;;
19525;SDS011;9907;42.676;26.348;2024-03-29T11:00:34;5.70;;;2.60;;
19525;SDS011;9907;42.676;26.348;2024-03-29T11:03:17;6.93;;;2.80;;
19525;SDS011;9907;42.676;26.348;2024-03-29T11:05:47;10.47;;;3.20;;
19525;SDS011;9907;42.676;26.348;2024-03-29T11:08:18;8.10;;;3.00;;
19525;SDS011;9907;42.676;26.348;2024-03-29T11:10:47;7.57;;;2.53;;
19525;SDS011;9907;42.676;26.348;2024-03-29T11:16:02;6.03;;;2.30;;
19525;SDS011;9907;42.676;26.348;2024-03-29T11:18:28;8.17;;;2.90;;
19525;SDS011;9907;42.676;26.348;2024-03-29T11:20:55;9.30;;;2.83;;
19525;SDS011;9907;42.676;26.348;2024-03-29T11:23:24;9.13;;;2.90;;
19525;SDS011;9907;42.676;26.348;2024-03-29T11:25:52;10.10;;;3.17;;
19525;SDS011;9907;42.676;26.348;2024-03-29T11:28:23;8.20;;;4.30;;
19525;SDS011;9907;42.676;26.348;2024-03-29T11:30:51;12.03;;;3.60;;
19525;SDS011;9907;42.676;26.348;2024-03-29T11:33:25;8.63;;;2.20;;
19525;SDS011;9907;42.676;26.348;2024-03-29T11:35:54;5.10;;;2.20;;
19525;SDS011;9907;42.676;26.348;2024-03-29T11:38:19;8.93;;;2.47;;
19525;SDS011;9907;42.676;26.348;2024-03-29T11:40:54;7.43;;;2.50;;
19525;SDS011;9907;42.676;26.348;2024-03-29T11:43:25;8.67;;;2.10;;
19525;SDS011;9907;42.676;26.348;2024-03-29T11:45:53;4.77;;;2.07;;
19525;SDS011;9907;42.676;26.348;2024-03-29T11:48:23;5.97;;;2.20;;
19525;SDS011;9907;42.676;26.348;2024-03-29T11:50:51;8.77;;;2.33;;
19525;SDS011;9907;42.676;26.348;2024-03-29T11:53:18;7.43;;;2.60;;
19525;SDS011;9907;42.676;26.348;2024-03-29T11:55:44;6.30;;;2.30;;
19525;SDS011;9907;42.676;26.348;2024-03-29T11:58:09;7.00;;;2.00;;
19525;SDS011;9907;42.676;26.348;2024-03-29T12:00:35;7.73;;;2.60;;
19525;SDS011;9907;42.676;26.348;2024-03-29T12:03:04;7.37;;;2.60;;
19525;SDS011;9907;42.676;26.348;2024-03-29T12:05:30;6.47;;;2.33;;
19525;SDS011;9907;42.676;26.348;2024-03-29T12:07:56;8.07;;;2.67;;
19525;SDS011;9907;42.676;26.348;2024-03-29T12:10:26;8.30;;;3.07;;
19525;SDS011;9907;42.676;26.348;2024-03-29T12:12:59;7.57;;;2.43;;
19525;SDS011;9907;42.676;26.348;2024-03-29T12:15:27;7.40;;;2.90;;
19525;SDS011;9907;42.676;26.348;2024-03-29T12:17:56;7.67;;;2.57;;
19525;SDS011;9907;42.676;26.348;2024-03-29T12:20:23;6.73;;;3.63;;
19525;SDS011;9907;42.676;26.348;2024-03-29T12:22:48;10.90;;;5.00;;
19525;SDS011;9907;42.676;26.348;2024-03-29T12:25:14;9.77;;;4.63;;
19525;SDS011;9907;42.676;26.348;2024-03-29T12:27:42;6.43;;;2.43;;
19525;SDS011;9907;42.676;26.348;2024-03-29T12:30:11;8.53;;;2.50;;
19525;SDS011;9907;42.676;26.348;2024-03-29T12:32:38;7.13;;;2.40;;
19525;SDS011;9907;42.676;26.348;2024-03-29T12:35:07;6.33;;;2.23;;
19525;SDS011;9907;42.676;26.348;2024-03-29T12:37:37;6.37;;;3.90;;
19525;SDS011;9907;42.676;26.348;2024-03-29T12:40:04;7.17;;;3.20;;
19525;SDS011;9907;42.676;26.348;2024-03-29T12:42:40;5.83;;;3.10;;
19525;SDS011;9907;42.676;26.348;2024-03-29T12:45:06;12.23;;;7.80;;
19525;SDS011;9907;42.676;26.348;2024-03-29T12:47:33;7.07;;;3.87;;
19525;SDS011;9907;42.676;26.348;2024-03-29T12:50:00;4.93;;;2.83;;
19525;SDS011;9907;42.676;26.348;2024-03-29T12:52:26;6.77;;;2.87;;
19525;SDS011;9907;42.676;26.348;2024-03-29T12:54:52;7.20;;;2.37;;
19525;SDS011;9907;42.676;26.348;2024-03-29T12:57:17;8.67;;;2.43;;
19525;SDS011;9907;42.676;26.348;2024-03-29T12:59:43;8.07;;;2.23;;
19525;SDS011;9907;42.676;26.348;2024-03-29T13:02:09;9.00;;;3.00;;
19525;SDS011;9907;42.676;26.348;2024-03-29T13:04:35;5.70;;;1.93;;
19525;SDS011;9907;42.676;26.348;2024-03-29T13:07:01;4.80;;;2.67;;
19525;SDS011;9907;42.676;26.348;2024-03-29T13:09:27;4.80;;;2.70;;
19525;SDS011;9907;42.676;26.348;2024-03-29T13:11:52;5.27;;;2.23;;
19525;SDS011;9907;42.676;26.348;2024-03-29T13:14:18;6.47;;;2.70;;
19525;SDS011;9907;42.676;26.348;2024-03-29T13:16:43;6.60;;;3.63;;
19525;SDS011;9907;42.676;26.348;2024-03-29T13:19:09;8.67;;;3.13;;
19525;SDS011;9907;42.676;26.348;2024-03-29T13:21:34;3.90;;;1.60;;
19525;SDS011;9907;42.676;26.348;2024-03-29T13:24:02;5.73;;;2.40;;
19525;SDS011;9907;42.676;26.348;2024-03-29T13:26:27;9.23;;;4.70;;
19525;SDS011;9907;42.676;26.348;2024-03-29T13:28:54;6.03;;;2.40;;
19525;SDS011;9907;42.676;26.348;2024-03-29T13:31:20;5.93;;;3.03;;
19525;SDS011;9907;42.676;26.348;2024-03-29T13:33:45;8.60;;;2.63;;
19525;SDS011;9907;42.676;26.348;2024-03-29T13:36:12;10.23;;;6.37;;
19525;SDS011;9907;42.676;26.348;2024-03-29T13:38:38;7.53;;;3.47;;
19525;SDS011;9907;42.676;26.348;2024-03-29T13:41:03;4.23;;;1.80;;
19525;SDS011;9907;42.676;26.348;2024-03-29T13:43:30;5.10;;;1.93;;
19525;SDS011;9907;42.676;26.348;2024-03-29T13:45:57;8.60;;;4.17;;
19525;SDS011;9907;42.676;26.348;2024-03-29T13:48:24;8.43;;;4.47;;
19525;SDS011;9907;42.676;26.348;2024-03-29T13:50:49;5.67;;;2.77;;
19525;SDS011;9907;42.676;26.348;2024-03-29T13:53:15;10.40;;;4.63;;
19525;SDS011;9907;42.676;26.348;2024-03-29T13:55:40;5.40;;;4.03;;
19525;SDS011;9907;42.676;26.348;2024-03-29T13:58:06;10.13;;;4.40;;
19525;SDS011;9907;42.676;26.348;2024-03-29T14:00:31;6.33;;;3.17;;
19525;SDS011;9907;42.676;26.348;2024-03-29T14:02:57;5.70;;;3.00;;
19525;SDS011;9907;42.676;26.348;2024-03-29T14:05:23;6.23;;;2.10;;
19525;SDS011;9907;42.676;26.348;2024-03-29T14:07:48;7.40;;;1.80;;
19525;SDS011;9907;42.676;26.348;2024-03-29T14:10:15;6.50;;;2.83;;
19525;SDS011;9907;42.676;26.348;2024-03-29T14:12:43;7.50;;;2.20;;
19525;SDS011;9907;42.676;26.348;2024-03-29T14:15:10;4.60;;;2.23;;
19525;SDS011;9907;42.676;26.348;2024-03-29T14:17:35;10.00;;;2.67;;
19525;SDS011;9907;42.676;26.348;2024-03-29T14:20:01;7.13;;;2.17;;
19525;SDS011;9907;42.676;26.348;2024-03-29T14:22:26;8.83;;;2.53;;
19525;SDS011;9907;42.676;26.348;2024-03-29T14:24:54;3.93;;;2.10;;
19525;SDS011;9907;42.676;26.348;2024-03-29T14:27:22;8.13;;;2.20;;
19525;SDS011;9907;42.676;26.348;2024-03-29T14:29:49;6.83;;;1.97;;
19525;SDS011;9907;42.676;26.348;2024-03-29T14:32:15;6.73;;;2.13;;
19525;SDS011;9907;42.676;26.348;2024-03-29T14:34:41;7.90;;;1.80;;
19525;SDS011;9907;42.676;26.348;2024-03-29T14:37:11;4.07;;;2.20;;